sensor_id;sensor_type;location;lat;lon;timestamp;temperature;humidity
27741;DHT22;15134;48.768;9.184;2022-09-09T00:05:29;17.50;99.90
27741;DHT22;15134;48.768;9.184;2022-09-09T00:07:46;17.40;99.90
27741;DHT22;15134;48.768;9.184;2022-09-09T00:10:28;17.40;99.90
27741;DHT22;15134;48.768;9.184;2022-09-09T00:13:22;17.50;99.90
27741;DHT22;15134;48.768;9.184;2022-09-09T00:16:17;17.50;99.90
27741;DHT22;15134;48.768;9.184;2022-09-09T00:24:32;17.60;99.90
27741;DHT22;15134;48.768;9.184;2022-09-09T00:27:06;17.70;99.90
27741;DHT22;15134;48.768;9.184;2022-09-09T00:29:47;17.70;99.90
27741;DHT22;15134;48.768;9.184;2022-09-09T00:32:20;17.80;99.90
27741;DHT22;15134;48.768;9.184;2022-09-09T00:35:02;17.80;99.90
27741;DHT22;15134;48.768;9.184;2022-09-09T00:37:28;17.80;99.90
27741;DHT22;15134;48.768;9.184;2022-09-09T00:39:59;17.80;99.90
27741;DHT22;15134;48.768;9.184;2022-09-09T00:42:42;17.90;99.90
27741;DHT22;15134;48.768;9.184;2022-09-09T00:47:51;18.00;99.90
27741;DHT22;15134;48.768;9.184;2022-09-09T00:55:54;18.10;99.90
27741;DHT22;15134;48.768;9.184;2022-09-09T00:58:21;18.10;99.90
27741;DHT22;15134;48.768;9.184;2022-09-09T01:00:52;18.10;99.90
27741;DHT22;15134;48.768;9.184;2022-09-09T01:06:20;18.20;99.90
27741;DHT22;15134;48.768;9.184;2022-09-09T01:11:25;18.20;99.90
27741;DHT22;15134;48.768;9.184;2022-09-09T01:14:01;18.30;99.90
27741;DHT22;15134;48.768;9.184;2022-09-09T01:16:30;18.20;99.90
27741;DHT22;15134;48.768;9.184;2022-09-09T01:18:56;18.20;99.90
27741;DHT22;15134;48.768;9.184;2022-09-09T01:26:59;18.30;99.90
27741;DHT22;15134;48.768;9.184;2022-09-09T01:29:26;18.40;99.90
27741;DHT22;15134;48.768;9.184;2022-09-09T01:31:58;18.40;99.90
27741;DHT22;15134;48.768;9.184;2022-09-09T01:34:28;18.30;99.90
27741;DHT22;15134;48.768;9.184;2022-09-09T01:39:20;18.30;99.90
27741;DHT22;15134;48.768;9.184;2022-09-09T01:41:55;18.30;99.90
27741;DHT22;15134;48.768;9.184;2022-09-09T01:44:22;18.30;99.90
27741;DHT22;15134;48.768;9.184;2022-09-09T01:46:48;18.20;99.90
27741;DHT22;15134;48.768;9.184;2022-09-09T01:49:18;18.20;99.90
27741;DHT22;15134;48.768;9.184;2022-09-09T01:51:48;18.20;99.90
27741;DHT22;15134;48.768;9.184;2022-09-09T01:54:19;18.20;99.90
27741;DHT22;15134;48.768;9.184;2022-09-09T02:02:19;18.20;99.90
27741;DHT22;15134;48.768;9.184;2022-09-09T02:07:49;18.20;99.90
27741;DHT22;15134;48.768;9.184;2022-09-09T02:10:39;18.20;99.90
27741;DHT22;15134;48.768;9.184;2022-09-09T02:13:17;18.20;99.90
27741;DHT22;15134;48.768;9.184;2022-09-09T02:15:56;18.10;99.90
27741;DHT22;15134;48.768;9.184;2022-09-09T02:18:27;18.10;99.90
27741;DHT22;15134;48.768;9.184;2022-09-09T02:20:56;18.10;99.90
27741;DHT22;15134;48.768;9.184;2022-09-09T02:23:24;18.10;99.90
27741;DHT22;15134;48.768;9.184;2022-09-09T02:25:55;18.10;99.90
27741;DHT22;15134;48.768;9.184;2022-09-09T02:28:27;18.10;99.90
27741;DHT22;15134;48.768;9.184;2022-09-09T02:30:54;18.00;99.90
27741;DHT22;15134;48.768;9.184;2022-09-09T02:33:32;18.00;99.90
27741;DHT22;15134;48.768;9.184;2022-09-09T02:36:02;18.00;99.90
27741;DHT22;15134;48.768;9.184;2022-09-09T02:38:34;17.80;99.90
27741;DHT22;15134;48.768;9.184;2022-09-09T02:41:07;17.80;99.90
27741;DHT22;15134;48.768;9.184;2022-09-09T02:43:34;17.70;99.90
27741;DHT22;15134;48.768;9.184;2022-09-09T02:56:54;17.70;99.90
27741;DHT22;15134;48.768;9.184;2022-09-09T02:59:29;17.70;99.90
27741;DHT22;15134;48.768;9.184;2022-09-09T03:01:56;17.70;99.90
27741;DHT22;15134;48.768;9.184;2022-09-09T03:04:22;17.60;99.90
27741;DHT22;15134;48.768;9.184;2022-09-09T03:06:50;17.60;99.90
27741;DHT22;15134;48.768;9.184;2022-09-09T03:09:19;17.50;99.90
27741;DHT22;15134;48.768;9.184;2022-09-09T03:11:44;17.60;99.90
27741;DHT22;15134;48.768;9.184;2022-09-09T03:14:12;17.70;99.90
27741;DHT22;15134;48.768;9.184;2022-09-09T03:16:39;17.70;99.90
27741;DHT22;15134;48.768;9.184;2022-09-09T03:19:06;17.70;99.90
27741;DHT22;15134;48.768;9.184;2022-09-09T03:21:32;17.80;99.90
27741;DHT22;15134;48.768;9.184;2022-09-09T03:23:58;17.70;99.90
27741;DHT22;15134;48.768;9.184;2022-09-09T03:26:24;17.70;99.90
27741;DHT22;15134;48.768;9.184;2022-09-09T03:28:50;17.70;99.90
27741;DHT22;15134;48.768;9.184;2022-09-09T03:31:18;17.80;99.90
27741;DHT22;15134;48.768;9.184;2022-09-09T03:33:46;17.70;99.90
27741;DHT22;15134;48.768;9.184;2022-09-09T03:36:15;17.70;99.90
27741;DHT22;15134;48.768;9.184;2022-09-09T03:38:41;17.60;99.90
27741;DHT22;15134;48.768;9.184;2022-09-09T03:41:07;17.60;99.90
27741;DHT22;15134;48.768;9.184;2022-09-09T03:43:34;17.60;99.90
27741;DHT22;15134;48.768;9.184;2022-09-09T03:46:00;17.70;99.90
27741;DHT22;15134;48.768;9.184;2022-09-09T03:48:28;17.70;99.90
27741;DHT22;15134;48.768;9.184;2022-09-09T03:50:55;17.80;99.90
27741;DHT22;15134;48.768;9.184;2022-09-09T03:53:24;17.80;99.90
27741;DHT22;15134;48.768;9.184;2022-09-09T03:55:53;17.90;99.90
27741;DHT22;15134;48.768;9.184;2022-09-09T03:58:22;17.90;99.90
27741;DHT22;15134;48.768;9.184;2022-09-09T04:03:30;17.90;99.90
27741;DHT22;15134;48.768;9.184;2022-09-09T04:05:58;17.90;99.90
27741;DHT22;15134;48.768;9.184;2022-09-09T04:08:26;17.90;99.90
27741;DHT22;15134;48.768;9.184;2022-09-09T04:10:55;17.90;99.90
27741;DHT22;15134;48.768;9.184;2022-09-09T04:13:25;17.80;99.90
27741;DHT22;15134;48.768;9.184;2022-09-09T04:15:52;17.70;99.90
27741;DHT22;15134;48.768;9.184;2022-09-09T04:18:19;17.70;99.90
27741;DHT22;15134;48.768;9.184;2022-09-09T04:20:48;17.60;99.90
27741;DHT22;15134;48.768;9.184;2022-09-09T04:23:17;17.60;99.90
27741;DHT22;15134;48.768;9.184;2022-09-09T04:25:48;17.60;99.90
27741;DHT22;15134;48.768;9.184;2022-09-09T04:28:14;17.50;99.90
27741;DHT22;15134;48.768;9.184;2022-09-09T04:30:41;17.50;99.90
27741;DHT22;15134;48.768;9.184;2022-09-09T04:33:08;17.50;99.90
27741;DHT22;15134;48.768;9.184;2022-09-09T04:35:36;17.50;99.90
27741;DHT22;15134;48.768;9.184;2022-09-09T04:38:03;17.60;99.90
27741;DHT22;15134;48.768;9.184;2022-09-09T04:40:31;17.60;99.90
27741;DHT22;15134;48.768;9.184;2022-09-09T04:43:01;17.60;99.90
27741;DHT22;15134;48.768;9.184;2022-09-09T04:45:28;17.60;99.90
27741;DHT22;15134;48.768;9.184;2022-09-09T04:47:54;17.60;99.90
27741;DHT22;15134;48.768;9.184;2022-09-09T04:50:21;17.60;99.90
27741;DHT22;15134;48.768;9.184;2022-09-09T04:52:46;17.60;99.90
27741;DHT22;15134;48.768;9.184;2022-09-09T04:55:13;17.60;99.90
27741;DHT22;15134;48.768;9.184;2022-09-09T04:57:41;17.60;99.90
27741;DHT22;15134;48.768;9.184;2022-09-09T05:00:10;17.60;99.90
27741;DHT22;15134;48.768;9.184;2022-09-09T05:02:38;17.60;99.90
27741;DHT22;15134;48.768;9.184;2022-09-09T05:05:05;17.50;99.90
27741;DHT22;15134;48.768;9.184;2022-09-09T05:07:31;17.50;99.90
27741;DHT22;15134;48.768;9.184;2022-09-09T05:09:57;17.50;99.90
27741;DHT22;15134;48.768;9.184;2022-09-09T05:12:24;17.40;99.90
27741;DHT22;15134;48.768;9.184;2022-09-09T05:14:54;17.40;99.90
27741;DHT22;15134;48.768;9.184;2022-09-09T05:17:20;17.40;99.90
27741;DHT22;15134;48.768;9.184;2022-09-09T05:19:46;17.40;99.90
27741;DHT22;15134;48.768;9.184;2022-09-09T05:22:13;17.50;99.90
27741;DHT22;15134;48.768;9.184;2022-09-09T05:24:43;17.60;99.90
27741;DHT22;15134;48.768;9.184;2022-09-09T05:27:09;17.60;99.90
27741;DHT22;15134;48.768;9.184;2022-09-09T05:29:38;17.60;99.90
27741;DHT22;15134;48.768;9.184;2022-09-09T05:32:06;17.60;99.90
27741;DHT22;15134;48.768;9.184;2022-09-09T05:34:34;17.60;99.90
27741;DHT22;15134;48.768;9.184;2022-09-09T05:37:00;17.70;99.90
27741;DHT22;15134;48.768;9.184;2022-09-09T05:39:26;17.70;99.90
27741;DHT22;15134;48.768;9.184;2022-09-09T05:41:51;17.60;99.90
27741;DHT22;15134;48.768;9.184;2022-09-09T05:44:17;17.70;99.90
27741;DHT22;15134;48.768;9.184;2022-09-09T05:46:43;17.80;99.90
27741;DHT22;15134;48.768;9.184;2022-09-09T05:49:11;17.90;99.90
27741;DHT22;15134;48.768;9.184;2022-09-09T05:51:39;17.90;99.90
27741;DHT22;15134;48.768;9.184;2022-09-09T05:54:09;17.90;99.90
27741;DHT22;15134;48.768;9.184;2022-09-09T05:56:39;17.90;99.90
27741;DHT22;15134;48.768;9.184;2022-09-09T05:59:07;17.90;99.90
27741;DHT22;15134;48.768;9.184;2022-09-09T06:01:34;18.00;99.90
27741;DHT22;15134;48.768;9.184;2022-09-09T06:04:02;18.00;99.90
27741;DHT22;15134;48.768;9.184;2022-09-09T06:06:34;18.00;99.90
27741;DHT22;15134;48.768;9.184;2022-09-09T06:09:04;18.10;99.90
27741;DHT22;15134;48.768;9.184;2022-09-09T06:11:34;18.20;99.90
27741;DHT22;15134;48.768;9.184;2022-09-09T06:14:03;18.20;99.90
27741;DHT22;15134;48.768;9.184;2022-09-09T06:16:30;18.20;99.90
27741;DHT22;15134;48.768;9.184;2022-09-09T06:18:58;18.30;99.90
27741;DHT22;15134;48.768;9.184;2022-09-09T06:21:31;18.20;99.90
27741;DHT22;15134;48.768;9.184;2022-09-09T06:24:03;18.30;99.90
27741;DHT22;15134;48.768;9.184;2022-09-09T06:26:34;18.30;99.90
27741;DHT22;15134;48.768;9.184;2022-09-09T06:29:03;18.40;99.90
27741;DHT22;15134;48.768;9.184;2022-09-09T06:31:31;18.40;99.90
27741;DHT22;15134;48.768;9.184;2022-09-09T06:34:01;18.40;99.90
27741;DHT22;15134;48.768;9.184;2022-09-09T06:36:34;18.40;99.90
27741;DHT22;15134;48.768;9.184;2022-09-09T06:39:00;18.30;99.90
27741;DHT22;15134;48.768;9.184;2022-09-09T06:41:28;18.30;99.90
27741;DHT22;15134;48.768;9.184;2022-09-09T06:43:56;18.40;99.90
27741;DHT22;15134;48.768;9.184;2022-09-09T06:46:30;18.40;99.90
27741;DHT22;15134;48.768;9.184;2022-09-09T06:48:59;18.40;99.90
27741;DHT22;15134;48.768;9.184;2022-09-09T06:51:26;18.50;99.90
27741;DHT22;15134;48.768;9.184;2022-09-09T06:53:55;18.50;99.90
27741;DHT22;15134;48.768;9.184;2022-09-09T06:56:37;18.60;99.90
27741;DHT22;15134;48.768;9.184;2022-09-09T06:59:09;18.70;99.90
27741;DHT22;15134;48.768;9.184;2022-09-09T07:01:38;18.80;99.90
27741;DHT22;15134;48.768;9.184;2022-09-09T07:04:09;18.90;99.90
27741;DHT22;15134;48.768;9.184;2022-09-09T07:06:40;19.00;99.90
27741;DHT22;15134;48.768;9.184;2022-09-09T07:09:11;19.00;99.90
27741;DHT22;15134;48.768;9.184;2022-09-09T07:11:42;19.10;99.90
27741;DHT22;15134;48.768;9.184;2022-09-09T07:14:08;19.10;99.90
27741;DHT22;15134;48.768;9.184;2022-09-09T07:16:34;19.20;99.90
27741;DHT22;15134;48.768;9.184;2022-09-09T07:19:03;19.30;99.90
27741;DHT22;15134;48.768;9.184;2022-09-09T07:21:30;19.40;99.90
27741;DHT22;15134;48.768;9.184;2022-09-09T07:23:57;19.60;99.90
27741;DHT22;15134;48.768;9.184;2022-09-09T07:26:27;19.70;99.90
27741;DHT22;15134;48.768;9.184;2022-09-09T07:28:54;19.80;99.90
27741;DHT22;15134;48.768;9.184;2022-09-09T07:31:28;20.00;99.90
27741;DHT22;15134;48.768;9.184;2022-09-09T07:33:56;20.40;99.90
27741;DHT22;15134;48.768;9.184;2022-09-09T07:36:27;20.80;99.90
27741;DHT22;15134;48.768;9.184;2022-09-09T07:39:00;21.10;99.90
27741;DHT22;15134;48.768;9.184;2022-09-09T07:41:39;21.20;99.90
27741;DHT22;15134;48.768;9.184;2022-09-09T07:44:12;21.20;99.90
27741;DHT22;15134;48.768;9.184;2022-09-09T07:46:39;21.80;99.90
27741;DHT22;15134;48.768;9.184;2022-09-09T07:49:08;22.50;99.90
27741;DHT22;15134;48.768;9.184;2022-09-09T07:51:40;23.20;99.90
27741;DHT22;15134;48.768;9.184;2022-09-09T07:54:09;23.60;99.90
27741;DHT22;15134;48.768;9.184;2022-09-09T07:56:37;23.90;99.90
27741;DHT22;15134;48.768;9.184;2022-09-09T07:59:06;23.90;99.90
27741;DHT22;15134;48.768;9.184;2022-09-09T08:01:39;23.90;99.90
27741;DHT22;15134;48.768;9.184;2022-09-09T08:04:10;24.10;99.90
27741;DHT22;15134;48.768;9.184;2022-09-09T08:06:40;24.40;99.90
27741;DHT22;15134;48.768;9.184;2022-09-09T08:09:09;24.80;99.90
27741;DHT22;15134;48.768;9.184;2022-09-09T08:11:37;25.10;99.90
27741;DHT22;15134;48.768;9.184;2022-09-09T08:14:04;25.50;99.90
27741;DHT22;15134;48.768;9.184;2022-09-09T08:16:35;25.90;99.90
27741;DHT22;15134;48.768;9.184;2022-09-09T08:19:03;26.10;99.90
27741;DHT22;15134;48.768;9.184;2022-09-09T08:21:31;26.80;99.90
27741;DHT22;15134;48.768;9.184;2022-09-09T08:24:00;27.10;99.90
27741;DHT22;15134;48.768;9.184;2022-09-09T08:26:28;27.30;99.90
27741;DHT22;15134;48.768;9.184;2022-09-09T08:28:55;27.90;99.90
27741;DHT22;15134;48.768;9.184;2022-09-09T08:33:50;30.30;99.90
27741;DHT22;15134;48.768;9.184;2022-09-09T08:36:17;31.40;99.30
27741;DHT22;15134;48.768;9.184;2022-09-09T08:38:43;32.90;96.30
27741;DHT22;15134;48.768;9.184;2022-09-09T08:44:18;34.10;90.50
27741;DHT22;15134;48.768;9.184;2022-09-09T08:52:22;37.90;77.10
27741;DHT22;15134;48.768;9.184;2022-09-09T08:54:48;38.90;72.20
27741;DHT22;15134;48.768;9.184;2022-09-09T08:57:20;39.30;70.40
27741;DHT22;15134;48.768;9.184;2022-09-09T08:59:49;39.50;68.50
27741;DHT22;15134;48.768;9.184;2022-09-09T09:05:23;36.20;69.30
27741;DHT22;15134;48.768;9.184;2022-09-09T09:08:12;35.50;69.50
27741;DHT22;15134;48.768;9.184;2022-09-09T09:10:50;33.80;71.20
27741;DHT22;15134;48.768;9.184;2022-09-09T09:13:26;31.30;75.40
27741;DHT22;15134;48.768;9.184;2022-09-09T09:18:41;28.10;83.10
27741;DHT22;15134;48.768;9.184;2022-09-09T09:24:00;26.30;88.70
27741;DHT22;15134;48.768;9.184;2022-09-09T09:26:34;25.60;91.00
27741;DHT22;15134;48.768;9.184;2022-09-09T09:29:11;24.80;93.50
27741;DHT22;15134;48.768;9.184;2022-09-09T09:31:38;24.20;95.90
27741;DHT22;15134;48.768;9.184;2022-09-09T09:34:08;23.70;97.10
27741;DHT22;15134;48.768;9.184;2022-09-09T09:39:04;22.70;99.90
27741;DHT22;15134;48.768;9.184;2022-09-09T09:41:38;22.20;99.90
27741;DHT22;15134;48.768;9.184;2022-09-09T09:44:06;22.20;99.90
27741;DHT22;15134;48.768;9.184;2022-09-09T09:46:45;22.70;99.90
27741;DHT22;15134;48.768;9.184;2022-09-09T09:49:12;23.20;99.90
27741;DHT22;15134;48.768;9.184;2022-09-09T09:51:40;23.50;99.90
27741;DHT22;15134;48.768;9.184;2022-09-09T09:54:13;23.80;99.90
27741;DHT22;15134;48.768;9.184;2022-09-09T09:56:49;23.90;99.90
27741;DHT22;15134;48.768;9.184;2022-09-09T10:01:54;24.20;99.90
27741;DHT22;15134;48.768;9.184;2022-09-09T10:04:22;24.30;99.90
27741;DHT22;15134;48.768;9.184;2022-09-09T10:06:50;24.40;99.90
27741;DHT22;15134;48.768;9.184;2022-09-09T10:14:21;24.80;99.90
27741;DHT22;15134;48.768;9.184;2022-09-09T10:22:51;24.80;99.90
27741;DHT22;15134;48.768;9.184;2022-09-09T10:28:07;24.80;99.90
27741;DHT22;15134;48.768;9.184;2022-09-09T10:30:52;24.70;99.90
27741;DHT22;15134;48.768;9.184;2022-09-09T10:36:13;24.80;99.90
27741;DHT22;15134;48.768;9.184;2022-09-09T10:38:48;24.60;99.90
27741;DHT22;15134;48.768;9.184;2022-09-09T10:44:25;24.50;99.90
27741;DHT22;15134;48.768;9.184;2022-09-09T10:54:56;24.40;99.90
27741;DHT22;15134;48.768;9.184;2022-09-09T10:57:36;24.30;99.90
27741;DHT22;15134;48.768;9.184;2022-09-09T11:00:10;24.20;99.90
27741;DHT22;15134;48.768;9.184;2022-09-09T11:02:40;24.30;99.90
27741;DHT22;15134;48.768;9.184;2022-09-09T11:05:26;24.60;99.90
27741;DHT22;15134;48.768;9.184;2022-09-09T11:08:01;24.60;99.90
27741;DHT22;15134;48.768;9.184;2022-09-09T11:10:44;24.40;99.90
27741;DHT22;15134;48.768;9.184;2022-09-09T11:13:23;24.10;99.90
27741;DHT22;15134;48.768;9.184;2022-09-09T11:19:30;23.80;99.90
27741;DHT22;15134;48.768;9.184;2022-09-09T11:22:44;24.00;99.90
27741;DHT22;15134;48.768;9.184;2022-09-09T11:25:01;24.20;99.90
27741;DHT22;15134;48.768;9.184;2022-09-09T11:27:38;23.90;99.90
27741;DHT22;15134;48.768;9.184;2022-09-09T11:36:52;22.50;99.90
27741;DHT22;15134;48.768;9.184;2022-09-09T11:38:52;22.30;99.90
27741;DHT22;15134;48.768;9.184;2022-09-09T11:41:20;22.50;99.90
27741;DHT22;15134;48.768;9.184;2022-09-09T11:43:51;22.60;99.90
27741;DHT22;15134;48.768;9.184;2022-09-09T11:46:32;22.50;99.90
27741;DHT22;15134;48.768;9.184;2022-09-09T11:49:00;22.40;99.90
27741;DHT22;15134;48.768;9.184;2022-09-09T11:51:29;22.40;99.90
27741;DHT22;15134;48.768;9.184;2022-09-09T11:54:00;22.30;99.90
27741;DHT22;15134;48.768;9.184;2022-09-09T11:59:00;22.20;99.90
27741;DHT22;15134;48.768;9.184;2022-09-09T12:01:30;22.10;99.90
27741;DHT22;15134;48.768;9.184;2022-09-09T12:06:56;22.30;99.90
27741;DHT22;15134;48.768;9.184;2022-09-09T12:09:33;22.60;99.90
27741;DHT22;15134;48.768;9.184;2022-09-09T12:17:22;22.80;99.90
27741;DHT22;15134;48.768;9.184;2022-09-09T12:19:59;22.70;99.90
27741;DHT22;15134;48.768;9.184;2022-09-09T12:28:03;23.00;99.90
27741;DHT22;15134;48.768;9.184;2022-09-09T12:33:11;23.20;99.50
27741;DHT22;15134;48.768;9.184;2022-09-09T12:35:38;23.10;99.40
27741;DHT22;15134;48.768;9.184;2022-09-09T12:38:06;23.10;98.40
27741;DHT22;15134;48.768;9.184;2022-09-09T12:40:36;22.90;97.90
27741;DHT22;15134;48.768;9.184;2022-09-09T12:43:20;22.80;97.60
27741;DHT22;15134;48.768;9.184;2022-09-09T12:45:57;22.80;97.90
27741;DHT22;15134;48.768;9.184;2022-09-09T12:48:32;22.70;97.60
27741;DHT22;15134;48.768;9.184;2022-09-09T12:50:59;22.50;98.00
27741;DHT22;15134;48.768;9.184;2022-09-09T12:53:29;22.50;98.50
27741;DHT22;15134;48.768;9.184;2022-09-09T12:56:01;22.70;98.60
27741;DHT22;15134;48.768;9.184;2022-09-09T12:58:30;22.90;98.80
27741;DHT22;15134;48.768;9.184;2022-09-09T13:00:59;22.90;98.90
27741;DHT22;15134;48.768;9.184;2022-09-09T13:03:26;22.90;98.90
27741;DHT22;15134;48.768;9.184;2022-09-09T13:05:53;22.80;98.80
27741;DHT22;15134;48.768;9.184;2022-09-09T13:08:20;22.60;99.50
27741;DHT22;15134;48.768;9.184;2022-09-09T13:11:06;22.50;99.60
27741;DHT22;15134;48.768;9.184;2022-09-09T13:16:02;22.30;99.60
27741;DHT22;15134;48.768;9.184;2022-09-09T13:18:34;22.40;99.30
27741;DHT22;15134;48.768;9.184;2022-09-09T13:21:01;22.50;98.90
27741;DHT22;15134;48.768;9.184;2022-09-09T13:23:32;22.70;99.00
27741;DHT22;15134;48.768;9.184;2022-09-09T13:26:00;22.90;98.70
27741;DHT22;15134;48.768;9.184;2022-09-09T13:28:29;23.00;99.00
27741;DHT22;15134;48.768;9.184;2022-09-09T13:31:06;23.10;99.00
27741;DHT22;15134;48.768;9.184;2022-09-09T13:33:44;23.20;98.90
27741;DHT22;15134;48.768;9.184;2022-09-09T13:36:11;23.20;98.40
27741;DHT22;15134;48.768;9.184;2022-09-09T13:38:52;23.10;98.30
27741;DHT22;15134;48.768;9.184;2022-09-09T13:41:23;23.00;98.00
27741;DHT22;15134;48.768;9.184;2022-09-09T13:43:50;22.80;98.20
27741;DHT22;15134;48.768;9.184;2022-09-09T13:46:37;22.70;97.40
27741;DHT22;15134;48.768;9.184;2022-09-09T13:51:38;22.30;97.70
27741;DHT22;15134;48.768;9.184;2022-09-09T13:54:05;22.30;97.90
27741;DHT22;15134;48.768;9.184;2022-09-09T13:56:39;22.30;98.10
27741;DHT22;15134;48.768;9.184;2022-09-09T13:59:08;22.40;98.40
27741;DHT22;15134;48.768;9.184;2022-09-09T14:01:34;22.60;98.30
27741;DHT22;15134;48.768;9.184;2022-09-09T14:04:00;22.70;98.00
27741;DHT22;15134;48.768;9.184;2022-09-09T14:06:26;22.80;98.00
27741;DHT22;15134;48.768;9.184;2022-09-09T14:08:52;22.90;98.00
27741;DHT22;15134;48.768;9.184;2022-09-09T14:11:19;22.90;97.50
27741;DHT22;15134;48.768;9.184;2022-09-09T14:13:47;22.90;97.40
27741;DHT22;15134;48.768;9.184;2022-09-09T14:16:16;22.80;97.20
27741;DHT22;15134;48.768;9.184;2022-09-09T14:18:43;22.80;97.20
27741;DHT22;15134;48.768;9.184;2022-09-09T14:21:09;22.70;97.50
27741;DHT22;15134;48.768;9.184;2022-09-09T14:23:35;22.60;97.40
27741;DHT22;15134;48.768;9.184;2022-09-09T14:26:01;22.50;97.70
27741;DHT22;15134;48.768;9.184;2022-09-09T14:28:27;22.50;97.70
27741;DHT22;15134;48.768;9.184;2022-09-09T14:30:54;22.50;97.70
27741;DHT22;15134;48.768;9.184;2022-09-09T14:33:19;22.40;97.50
27741;DHT22;15134;48.768;9.184;2022-09-09T14:35:45;22.40;97.10
27741;DHT22;15134;48.768;9.184;2022-09-09T14:38:11;22.40;97.40
27741;DHT22;15134;48.768;9.184;2022-09-09T14:40:38;22.50;97.30
27741;DHT22;15134;48.768;9.184;2022-09-09T14:43:04;22.40;97.00
27741;DHT22;15134;48.768;9.184;2022-09-09T14:45:31;22.30;97.00
27741;DHT22;15134;48.768;9.184;2022-09-09T14:47:57;22.20;96.90
27741;DHT22;15134;48.768;9.184;2022-09-09T14:50:23;22.20;97.10
27741;DHT22;15134;48.768;9.184;2022-09-09T14:52:49;22.20;97.10
27741;DHT22;15134;48.768;9.184;2022-09-09T14:55:16;22.20;97.30
27741;DHT22;15134;48.768;9.184;2022-09-09T14:57:45;22.20;96.90
27741;DHT22;15134;48.768;9.184;2022-09-09T15:00:13;22.20;97.10
27741;DHT22;15134;48.768;9.184;2022-09-09T15:02:39;22.20;97.00
27741;DHT22;15134;48.768;9.184;2022-09-09T15:05:06;22.20;97.00
27741;DHT22;15134;48.768;9.184;2022-09-09T15:07:31;22.20;96.70
27741;DHT22;15134;48.768;9.184;2022-09-09T15:09:57;22.30;96.50
27741;DHT22;15134;48.768;9.184;2022-09-09T15:12:24;22.30;96.20
27741;DHT22;15134;48.768;9.184;2022-09-09T15:14:49;22.30;96.20
27741;DHT22;15134;48.768;9.184;2022-09-09T15:17:22;22.20;96.10
27741;DHT22;15134;48.768;9.184;2022-09-09T15:19:47;22.20;96.30
27741;DHT22;15134;48.768;9.184;2022-09-09T15:22:15;22.00;96.70
27741;DHT22;15134;48.768;9.184;2022-09-09T15:24:41;21.90;97.00
27741;DHT22;15134;48.768;9.184;2022-09-09T15:27:06;21.80;97.00
27741;DHT22;15134;48.768;9.184;2022-09-09T15:29:32;21.80;97.20
27741;DHT22;15134;48.768;9.184;2022-09-09T15:31:58;21.70;97.20
27741;DHT22;15134;48.768;9.184;2022-09-09T15:34:24;21.80;97.30
27741;DHT22;15134;48.768;9.184;2022-09-09T15:36:50;21.90;97.20
27741;DHT22;15134;48.768;9.184;2022-09-09T15:39:17;22.00;97.30
27741;DHT22;15134;48.768;9.184;2022-09-09T15:41:46;22.00;97.20
27741;DHT22;15134;48.768;9.184;2022-09-09T15:44:12;22.00;97.00
27741;DHT22;15134;48.768;9.184;2022-09-09T15:46:44;22.00;97.20
27741;DHT22;15134;48.768;9.184;2022-09-09T15:49:15;22.00;97.30
27741;DHT22;15134;48.768;9.184;2022-09-09T15:51:43;22.00;97.10
27741;DHT22;15134;48.768;9.184;2022-09-09T15:54:13;21.90;97.20
27741;DHT22;15134;48.768;9.184;2022-09-09T15:56:40;21.80;97.10
27741;DHT22;15134;48.768;9.184;2022-09-09T15:59:06;21.70;97.00
27741;DHT22;15134;48.768;9.184;2022-09-09T16:01:32;21.60;97.00
27741;DHT22;15134;48.768;9.184;2022-09-09T16:03:59;21.50;97.20
27741;DHT22;15134;48.768;9.184;2022-09-09T16:06:26;21.40;97.20
27741;DHT22;15134;48.768;9.184;2022-09-09T16:08:55;21.40;97.20
27741;DHT22;15134;48.768;9.184;2022-09-09T16:11:32;21.30;97.30
27741;DHT22;15134;48.768;9.184;2022-09-09T16:14:03;21.30;97.30
27741;DHT22;15134;48.768;9.184;2022-09-09T16:16:30;21.30;97.10
27741;DHT22;15134;48.768;9.184;2022-09-09T16:18:58;21.30;97.10
27741;DHT22;15134;48.768;9.184;2022-09-09T16:21:28;21.30;97.20
27741;DHT22;15134;48.768;9.184;2022-09-09T16:23:58;21.30;97.10
27741;DHT22;15134;48.768;9.184;2022-09-09T16:26:29;21.30;97.30
27741;DHT22;15134;48.768;9.184;2022-09-09T16:28:55;21.20;97.40
27741;DHT22;15134;48.768;9.184;2022-09-09T16:31:23;21.20;97.60
27741;DHT22;15134;48.768;9.184;2022-09-09T16:33:50;21.30;97.60
27741;DHT22;15134;48.768;9.184;2022-09-09T16:36:18;21.20;97.80
27741;DHT22;15134;48.768;9.184;2022-09-09T16:38:44;21.20;98.00
27741;DHT22;15134;48.768;9.184;2022-09-09T16:41:11;21.20;98.30
27741;DHT22;15134;48.768;9.184;2022-09-09T16:43:37;21.20;98.70
27741;DHT22;15134;48.768;9.184;2022-09-09T16:46:11;21.20;99.00
27741;DHT22;15134;48.768;9.184;2022-09-09T16:48:37;21.00;99.60
27741;DHT22;15134;48.768;9.184;2022-09-09T16:51:06;20.80;99.90
27741;DHT22;15134;48.768;9.184;2022-09-09T16:53:33;20.80;99.90
27741;DHT22;15134;48.768;9.184;2022-09-09T16:56:05;20.80;99.60
27741;DHT22;15134;48.768;9.184;2022-09-09T16:58:31;20.80;99.40
27741;DHT22;15134;48.768;9.184;2022-09-09T17:00:58;20.60;99.50
27741;DHT22;15134;48.768;9.184;2022-09-09T17:03:24;20.60;99.70
27741;DHT22;15134;48.768;9.184;2022-09-09T17:05:50;20.60;99.80
27741;DHT22;15134;48.768;9.184;2022-09-09T17:08:16;20.60;99.80
27741;DHT22;15134;48.768;9.184;2022-09-09T17:10:42;20.60;99.70
27741;DHT22;15134;48.768;9.184;2022-09-09T17:13:08;20.50;99.60
27741;DHT22;15134;48.768;9.184;2022-09-09T17:15:40;20.40;99.90
27741;DHT22;15134;48.768;9.184;2022-09-09T17:18:08;20.20;99.90
27741;DHT22;15134;48.768;9.184;2022-09-09T17:20:36;20.20;99.90
27741;DHT22;15134;48.768;9.184;2022-09-09T17:23:02;20.20;99.90
27741;DHT22;15134;48.768;9.184;2022-09-09T17:25:27;20.10;99.90
27741;DHT22;15134;48.768;9.184;2022-09-09T17:27:53;20.10;99.90
27741;DHT22;15134;48.768;9.184;2022-09-09T17:30:19;20.00;99.90
27741;DHT22;15134;48.768;9.184;2022-09-09T17:32:44;20.00;99.90
27741;DHT22;15134;48.768;9.184;2022-09-09T17:35:11;19.90;99.90
27741;DHT22;15134;48.768;9.184;2022-09-09T17:37:37;19.90;99.90
27741;DHT22;15134;48.768;9.184;2022-09-09T17:40:03;19.90;99.90
27741;DHT22;15134;48.768;9.184;2022-09-09T17:42:29;19.80;99.90
27741;DHT22;15134;48.768;9.184;2022-09-09T17:44:55;19.80;99.90
27741;DHT22;15134;48.768;9.184;2022-09-09T17:47:21;19.80;99.90
27741;DHT22;15134;48.768;9.184;2022-09-09T17:49:46;19.80;99.90
27741;DHT22;15134;48.768;9.184;2022-09-09T17:52:12;19.80;99.90
27741;DHT22;15134;48.768;9.184;2022-09-09T17:54:38;19.70;99.90
27741;DHT22;15134;48.768;9.184;2022-09-09T17:57:06;19.60;99.90
27741;DHT22;15134;48.768;9.184;2022-09-09T17:59:32;19.60;99.90
27741;DHT22;15134;48.768;9.184;2022-09-09T18:01:57;19.60;99.90
27741;DHT22;15134;48.768;9.184;2022-09-09T18:04:23;19.60;99.90